createdAt,value
2018-09-05T00:02:21.782Z,100.00
2018-09-05T00:04:51.001Z,100.00
2018-09-05T00:07:20.694Z,100.00
2018-09-05T00:09:49.686Z,100.00
2018-09-05T00:12:19.585Z,100.00
2018-09-05T00:14:48.751Z,100.00
2018-09-05T00:17:18.018Z,100.00
2018-09-05T00:19:47.650Z,100.00
2018-09-05T00:22:16.793Z,100.00
2018-09-05T00:24:46.026Z,100.00
2018-09-05T00:27:15.076Z,100.00
2018-09-05T00:29:44.602Z,100.00
2018-09-05T00:32:13.946Z,100.00
2018-09-05T00:34:43.050Z,100.00
2018-09-05T00:37:19.246Z,100.00
2018-09-05T00:39:48.482Z,100.00
2018-09-05T00:42:17.579Z,100.00
2018-09-05T00:44:46.985Z,100.00
2018-09-05T00:47:16.038Z,100.00
2018-09-05T00:49:45.256Z,100.00
2018-09-05T00:52:14.460Z,100.00
2018-09-05T00:54:43.806Z,100.00
2018-09-05T00:57:13.149Z,100.00
2018-09-05T00:59:42.323Z,100.00
2018-09-05T01:02:11.460Z,100.00
2018-09-05T01:04:40.679Z,100.00
2018-09-05T01:07:21.487Z,100.00
2018-09-05T01:09:50.596Z,100.00
2018-09-05T01:12:21.406Z,100.00
2018-09-05T01:14:51.696Z,100.00
2018-09-05T01:17:21.915Z,100.00
2018-09-05T01:19:51.005Z,100.00
2018-09-05T01:22:20.422Z,100.00
2018-09-05T01:24:49.734Z,100.00
2018-09-05T01:27:19.346Z,100.00
2018-09-05T01:29:48.461Z,100.00
2018-09-05T01:32:17.705Z,100.00
2018-09-05T01:34:46.761Z,100.00
2018-09-05T01:37:15.796Z,100.00
2018-09-05T01:39:44.901Z,100.00
2018-09-05T01:42:14.011Z,100.00
2018-09-05T01:44:43.003Z,100.00
2018-09-05T01:47:12.534Z,100.00
2018-09-05T01:49:41.603Z,100.00
2018-09-05T01:52:10.591Z,100.00
2018-09-05T01:54:39.717Z,100.00
2018-09-05T01:57:09.658Z,100.00
2018-09-05T01:59:38.854Z,100.00
2018-09-05T02:02:08.062Z,100.00
2018-09-05T02:04:37.109Z,100.00
2018-09-05T02:07:06.242Z,100.00
2018-09-05T02:09:35.319Z,100.00
2018-09-05T02:12:04.517Z,100.00
2018-09-05T02:14:33.646Z,100.00
2018-09-05T02:17:02.812Z,100.00
2018-09-05T02:19:31.977Z,100.00
2018-09-05T02:22:00.999Z,100.00
2018-09-05T02:24:30.080Z,100.00
2018-09-05T02:26:59.145Z,100.00
2018-09-05T02:29:28.120Z,100.00
2018-09-05T02:31:57.237Z,100.00
2018-09-05T02:35:03.089Z,100.00
2018-09-05T02:37:32.352Z,100.00
2018-09-05T02:40:01.504Z,100.00
2018-09-05T02:42:30.564Z,100.00
2018-09-05T02:44:59.663Z,100.00
2018-09-05T02:47:28.678Z,100.00
2018-09-05T02:49:57.749Z,100.00
2018-09-05T02:52:26.816Z,100.00
2018-09-05T02:54:55.847Z,100.00
2018-09-05T02:57:25.027Z,100.00
2018-09-05T02:59:57.811Z,100.00
2018-09-05T03:02:29.395Z,100.00
2018-09-05T03:04:58.534Z,100.00
2018-09-05T03:07:27.477Z,100.00
2018-09-05T03:09:56.796Z,100.00
2018-09-05T03:12:25.919Z,100.00
2018-09-05T03:14:54.975Z,100.00
2018-09-05T03:17:24.058Z,100.00
2018-09-05T03:19:53.222Z,100.00
2018-09-05T03:22:22.462Z,100.00
2018-09-05T03:24:59.165Z,100.00
2018-09-05T03:27:28.206Z,100.00
2018-09-05T03:29:57.229Z,100.00
2018-09-05T03:32:26.432Z,100.00
2018-09-05T03:34:55.436Z,100.00
2018-09-05T03:37:24.561Z,100.00
2018-09-05T03:42:56.398Z,100.00
2018-09-05T03:45:25.451Z,100.00
2018-09-05T03:47:54.406Z,100.00
2018-09-05T03:50:23.473Z,100.00
2018-09-05T03:52:52.644Z,100.00
2018-09-05T03:55:22.052Z,100.00
2018-09-05T03:57:51.648Z,100.00
2018-09-05T04:00:40.273Z,100.00
2018-09-05T04:03:09.424Z,100.00
2018-09-05T04:05:38.563Z,100.00
2018-09-05T04:08:07.702Z,100.00
2018-09-05T04:10:36.678Z,100.00
2018-09-05T04:13:05.693Z,100.00
2018-09-05T04:15:34.877Z,100.00
2018-09-05T04:18:03.935Z,100.00
2018-09-05T04:20:32.927Z,100.00
2018-09-05T04:23:01.922Z,100.00
2018-09-05T04:25:31.038Z,100.00
2018-09-05T04:28:00.151Z,100.00
2018-09-05T04:30:29.317Z,100.00
2018-09-05T04:32:58.326Z,100.00
2018-09-05T04:35:27.389Z,100.00
2018-09-05T04:37:56.498Z,100.00
2018-09-05T04:40:25.917Z,100.00
2018-09-05T04:42:55.243Z,100.00
2018-09-05T04:45:24.561Z,100.00
2018-09-05T04:47:53.589Z,100.00
2018-09-05T04:50:22.895Z,100.00
2018-09-05T04:52:52.109Z,100.00
2018-09-05T04:55:21.743Z,100.00
2018-09-05T04:57:50.754Z,100.00
2018-09-05T05:00:20.441Z,100.00
2018-09-05T05:02:49.496Z,100.00
2018-09-05T05:05:19.629Z,100.00
2018-09-05T05:07:48.843Z,100.00
2018-09-05T05:10:21.495Z,100.00
2018-09-05T05:12:50.459Z,100.00
2018-09-05T05:15:20.242Z,100.00
2018-09-05T05:17:49.278Z,100.00
2018-09-05T05:20:22.017Z,100.00
2018-09-05T05:22:51.038Z,100.00
2018-09-05T05:25:21.253Z,100.00
2018-09-05T05:27:50.952Z,100.00
2018-09-05T05:30:21.581Z,100.00
2018-09-05T05:32:51.890Z,100.00
2018-09-05T05:35:21.334Z,100.00
2018-09-05T05:37:52.149Z,100.00
2018-09-05T05:40:22.291Z,100.00
2018-09-05T05:42:51.228Z,100.00
2018-09-05T05:45:20.667Z,100.00
2018-09-05T05:47:49.607Z,98.65
2018-09-05T05:50:19.097Z,98.77
2018-09-05T05:52:48.082Z,100.00
2018-09-05T05:55:18.185Z,96.07
2018-09-05T05:57:47.303Z,97.26
2018-09-05T06:00:16.316Z,90.00
2018-09-05T06:02:45.342Z,89.62
2018-09-05T06:05:18.703Z,91.99
2018-09-05T06:07:47.731Z,93.14
2018-09-05T06:10:20.160Z,88.43
2018-09-05T06:12:49.290Z,80.85
2018-09-05T06:15:19.663Z,81.79
2018-09-05T06:17:49.227Z,74.87
2018-09-05T06:20:20.817Z,77.62
2018-09-05T06:22:50.296Z,76.98
2018-09-05T06:25:20.234Z,80.67
2018-09-05T06:27:49.549Z,77.91
2018-09-05T06:30:21.831Z,78.74
2018-09-05T06:32:51.496Z,75.10
2018-09-05T06:35:21.127Z,72.69
2018-09-05T06:37:50.094Z,73.66
2018-09-05T06:40:21.728Z,66.39
2018-09-05T06:42:50.742Z,69.67
2018-09-05T06:45:20.194Z,69.09
2018-09-05T06:47:49.332Z,68.61
2018-09-05T06:50:21.875Z,67.06
2018-09-05T06:52:50.979Z,67.14
2018-09-05T06:55:22.660Z,67.38
2018-09-05T06:57:51.927Z,63.50
2018-09-05T07:00:23.536Z,64.01
2018-09-05T07:02:52.758Z,62.24
2018-09-05T07:05:23.929Z,65.51
2018-09-05T07:07:53.051Z,64.88
2018-09-05T07:10:25.843Z,63.53
2018-09-05T07:12:54.901Z,62.82
2018-09-05T07:15:23.924Z,62.99
2018-09-05T07:17:53.068Z,63.42
2018-09-05T07:20:24.709Z,62.23
2018-09-05T07:22:53.677Z,62.25
2018-09-05T07:25:22.891Z,62.89
2018-09-05T07:27:51.940Z,64.22
2018-09-05T07:30:25.036Z,64.23
2018-09-05T07:32:54.098Z,63.70
2018-09-05T07:35:23.984Z,65.34
2018-09-05T07:37:53.074Z,66.40
2018-09-05T07:40:24.453Z,66.57
2018-09-05T07:42:53.517Z,65.72
2018-09-05T07:45:23.030Z,62.56
2018-09-05T07:47:52.187Z,62.65
2018-09-05T07:50:23.773Z,63.33
2018-09-05T07:52:52.808Z,63.21
2018-09-05T07:55:23.892Z,61.93
2018-09-05T07:57:53.062Z,60.83
2018-09-05T08:00:23.676Z,59.74
2018-09-05T08:02:52.753Z,59.29
2018-09-05T08:05:24.886Z,59.46
2018-09-05T08:07:53.949Z,58.98
2018-09-05T08:10:26.205Z,59.14
2018-09-05T08:12:55.363Z,55.18
2018-09-05T08:15:24.367Z,55.57
2018-09-05T08:17:53.354Z,53.84
2018-09-05T08:20:25.055Z,54.22
2018-09-05T08:22:54.007Z,56.01
2018-09-05T08:25:23.685Z,52.17
2018-09-05T08:27:52.880Z,52.28
2018-09-05T08:30:24.521Z,52.31
2018-09-05T08:32:53.546Z,48.07
2018-09-05T08:35:23.938Z,49.57
2018-09-05T08:37:52.963Z,47.04
2018-09-05T08:40:25.053Z,47.18
2018-09-05T08:42:54.643Z,44.26
2018-09-05T08:45:24.083Z,48.36
2018-09-05T08:47:53.025Z,48.06
2018-09-05T08:50:25.308Z,47.97
2018-09-05T08:52:54.409Z,47.84
2018-09-05T08:55:23.438Z,45.04
2018-09-05T08:57:52.866Z,43.63
2018-09-05T09:00:23.978Z,42.22
2018-09-05T09:02:52.908Z,41.45
2018-09-05T09:05:23.415Z,44.77
2018-09-05T09:07:52.466Z,44.54
2018-09-05T09:10:24.572Z,43.62
2018-09-05T09:12:53.904Z,42.24
2018-09-05T09:15:28.730Z,42.56
2018-09-05T09:17:58.292Z,41.98
2018-09-05T09:20:29.207Z,41.03
2018-09-05T09:23:00.211Z,42.64
2018-09-05T09:25:30.139Z,45.43
2018-09-05T09:27:59.145Z,44.81
2018-09-05T09:30:28.108Z,45.08
2018-09-05T09:32:57.041Z,45.06
2018-09-05T09:35:26.072Z,41.57
2018-09-05T09:37:55.008Z,41.57
2018-09-05T09:40:26.118Z,39.38
2018-09-05T09:42:55.075Z,42.73
2018-09-05T09:45:24.023Z,39.42
2018-09-05T09:47:53.036Z,38.80
2018-09-05T09:50:24.667Z,39.26
2018-09-05T09:52:53.722Z,36.82
2018-09-05T09:55:23.069Z,39.16
2018-09-05T09:57:52.008Z,42.48
2018-09-05T10:00:28.968Z,41.01
2018-09-05T10:03:02.914Z,41.27
2018-09-05T10:05:37.174Z,43.13
2018-09-05T10:08:11.230Z,43.91
2018-09-05T10:10:45.296Z,42.98
2018-09-05T10:13:19.996Z,40.27
2018-09-05T10:15:53.994Z,39.40
2018-09-05T10:18:27.778Z,37.74
2018-09-05T10:20:57.718Z,35.74
2018-09-05T10:23:27.038Z,34.57
2018-09-05T10:25:56.315Z,36.46
2018-09-05T10:28:25.531Z,34.71
2018-09-05T10:30:55.298Z,33.26
2018-09-05T10:33:24.824Z,33.78
2018-09-05T10:35:54.388Z,33.03
2018-09-05T10:38:23.668Z,32.49
2018-09-05T10:40:52.887Z,34.41
2018-09-05T10:43:22.411Z,34.92
2018-09-05T10:45:51.360Z,33.93
2018-09-05T10:48:20.642Z,36.12
2018-09-05T10:50:49.756Z,36.97
2018-09-05T10:53:18.895Z,37.70
2018-09-05T10:55:48.432Z,36.10
2018-09-05T10:58:17.557Z,33.96
2018-09-05T11:00:46.501Z,37.24
2018-09-05T11:03:15.937Z,35.49
2018-09-05T11:05:45.751Z,35.65
2018-09-05T11:08:15.004Z,34.94
2018-09-05T11:10:44.566Z,34.41
2018-09-05T11:13:13.964Z,33.16
2018-09-05T11:15:42.907Z,31.73
2018-09-05T11:18:11.898Z,35.15
2018-09-05T11:20:40.962Z,34.78
2018-09-05T11:23:09.918Z,30.51
2018-09-05T11:25:38.871Z,31.66
2018-09-05T11:28:07.836Z,32.15
2018-09-05T11:30:36.827Z,32.28
2018-09-05T11:33:05.928Z,31.16
2018-09-05T11:35:34.992Z,29.66
2018-09-05T11:38:03.941Z,31.06
2018-09-05T11:40:33.063Z,31.09
2018-09-05T11:43:02.108Z,33.81
2018-09-05T11:45:31.067Z,35.15
2018-09-05T11:47:59.971Z,33.53
2018-09-05T11:50:30.184Z,32.22
2018-09-05T11:52:59.264Z,31.69
2018-09-05T11:55:28.357Z,30.40
2018-09-05T11:57:57.463Z,33.17
2018-09-05T12:00:27.327Z,33.60
2018-09-05T12:02:56.354Z,34.21
2018-09-05T12:05:25.442Z,34.98
2018-09-05T12:07:54.527Z,35.78
2018-09-05T12:10:24.987Z,36.07
2018-09-05T12:12:53.973Z,38.61
2018-09-05T12:15:23.384Z,35.04
2018-09-05T12:17:52.960Z,34.85
2018-09-05T12:20:25.633Z,35.04
2018-09-05T12:22:54.875Z,36.53
2018-09-05T12:25:24.165Z,36.82
2018-09-05T12:27:53.520Z,33.44
2018-09-05T12:30:26.506Z,33.07
2018-09-05T12:32:56.222Z,33.58
2018-09-05T12:35:25.549Z,33.36
2018-09-05T12:37:55.009Z,31.54
2018-09-05T12:40:25.983Z,32.94
2018-09-05T12:42:55.124Z,33.74
2018-09-05T12:45:24.614Z,32.74
2018-09-05T12:47:54.194Z,31.91
2018-09-05T12:50:26.331Z,35.26
2018-09-05T12:52:56.060Z,37.09
2018-09-05T12:55:25.472Z,36.27
2018-09-05T12:57:54.605Z,36.90
2018-09-05T13:00:24.426Z,35.61
2018-09-05T13:02:53.912Z,33.66
2018-09-05T13:05:24.920Z,35.07
2018-09-05T13:07:54.263Z,33.49
2018-09-05T13:10:25.426Z,34.62
2018-09-05T13:12:54.659Z,37.76
2018-09-05T13:15:24.002Z,38.77
2018-09-05T13:17:53.500Z,39.76
2018-09-05T13:20:25.610Z,38.74
2018-09-05T13:22:54.860Z,37.10
2018-09-05T13:25:24.156Z,35.84
2018-09-05T13:27:53.365Z,35.00
2018-09-05T13:30:25.121Z,36.08
2018-09-05T13:32:54.858Z,34.74
2018-09-05T13:35:26.585Z,36.32
2018-09-05T13:37:55.762Z,35.57
2018-09-05T13:40:25.634Z,38.18
2018-09-05T13:42:54.801Z,37.19
2018-09-05T13:45:24.077Z,36.55
2018-09-05T13:47:53.235Z,37.36
2018-09-05T14:04:05.850Z,38.04
2018-09-05T14:06:41.690Z,38.26
2018-09-05T14:09:12.676Z,36.41
2018-09-05T14:11:42.660Z,35.55
2018-09-05T14:14:12.067Z,37.40
2018-09-05T14:16:41.426Z,38.34
2018-09-05T14:19:11.046Z,37.42
2018-09-05T14:21:40.237Z,37.67
2018-09-05T14:24:09.979Z,39.81
2018-09-05T14:26:39.594Z,39.15
2018-09-05T14:29:09.234Z,40.53
2018-09-05T14:31:38.462Z,42.85
2018-09-05T14:34:07.938Z,42.36
2018-09-05T14:36:37.334Z,42.42
2018-09-05T14:39:10.163Z,41.04
2018-09-05T14:41:39.332Z,42.28
2018-09-05T14:44:08.535Z,43.49
2018-09-05T14:46:37.839Z,43.12
2018-09-05T14:49:07.053Z,43.56
2018-09-05T14:51:36.090Z,44.32
2018-09-05T14:54:05.872Z,43.55
2018-09-05T14:56:35.091Z,42.61
2018-09-05T14:59:04.686Z,43.27
2018-09-05T15:01:33.820Z,43.00
2018-09-05T15:04:03.072Z,44.41
2018-09-05T15:06:32.257Z,45.00
2018-09-05T15:09:01.448Z,44.75
2018-09-05T15:11:30.469Z,45.33
2018-09-05T15:13:59.596Z,45.34
2018-09-05T15:16:28.848Z,45.13
2018-09-05T15:18:58.012Z,46.51
2018-09-05T15:21:27.016Z,46.31
2018-09-05T15:23:56.126Z,46.98
2018-09-05T15:26:25.214Z,46.76
2018-09-05T15:28:54.150Z,46.17
2018-09-05T15:31:23.448Z,47.85
2018-09-05T15:33:52.566Z,48.92
2018-09-05T15:36:22.034Z,49.38
2018-09-05T15:38:51.080Z,49.90
2018-09-05T15:41:20.646Z,49.65
2018-09-05T15:43:49.596Z,50.58
2018-09-05T15:46:20.633Z,50.72
2018-09-05T15:48:49.662Z,49.73
2018-09-05T15:51:18.984Z,49.98
2018-09-05T15:53:47.991Z,50.01
2018-09-05T15:56:17.013Z,50.37
2018-09-05T15:58:46.047Z,50.09
2018-09-05T16:01:15.035Z,51.11
2018-09-05T16:03:44.082Z,50.57
2018-09-05T16:06:13.001Z,51.07
2018-09-05T16:08:42.051Z,50.89
2018-09-05T16:11:11.069Z,50.40
2018-09-05T16:13:40.151Z,51.18
2018-09-05T16:16:09.084Z,52.04
2018-09-05T16:18:38.061Z,53.35
2018-09-05T16:21:07.049Z,53.24
2018-09-05T16:23:36.013Z,53.15
2018-09-05T16:26:04.986Z,52.34
2018-09-05T16:28:34.056Z,53.38
2018-09-05T16:31:03.115Z,51.76
2018-09-05T16:33:32.147Z,51.11
2018-09-05T16:36:01.458Z,51.56
2018-09-05T16:38:30.443Z,51.28
2018-09-05T16:40:59.424Z,51.69
2018-09-05T16:43:29.186Z,51.98
2018-09-05T16:45:58.349Z,51.22
2018-09-05T16:48:27.428Z,51.50
2018-09-05T16:50:56.401Z,52.70
2018-09-05T16:53:25.365Z,53.06
2018-09-05T16:55:54.500Z,53.21
2018-09-05T16:58:23.489Z,53.67
2018-09-05T17:00:53.387Z,53.62
2018-09-05T17:03:22.792Z,54.96
2018-09-05T17:05:51.814Z,55.36
2018-09-05T17:08:21.189Z,56.59
2018-09-05T17:10:50.164Z,56.44
2018-09-05T17:13:19.650Z,58.06
2018-09-05T17:15:48.631Z,57.06
2018-09-05T17:18:17.797Z,58.51
2018-09-05T17:20:46.853Z,59.05
2018-09-05T17:23:16.018Z,58.13
2018-09-05T17:25:45.224Z,59.16
2018-09-05T17:28:14.589Z,59.79
2018-09-05T17:30:43.671Z,59.49
2018-09-05T17:33:12.816Z,59.60
2018-09-05T17:35:41.920Z,60.05
2018-09-05T17:38:11.050Z,60.29
2018-09-05T17:40:40.197Z,60.49
2018-09-05T17:43:09.381Z,60.80
2018-09-05T17:45:38.548Z,61.95
2018-09-05T17:48:07.771Z,61.23
2018-09-05T17:50:37.025Z,61.85
2018-09-05T17:53:06.191Z,63.38
2018-09-05T17:55:35.255Z,63.55
2018-09-05T17:58:04.383Z,64.87
2018-09-05T18:00:33.653Z,63.67
2018-09-05T18:03:02.767Z,63.25
2018-09-05T18:05:38.149Z,63.52
2018-09-05T18:08:07.885Z,64.16
2018-09-05T18:10:37.067Z,64.58
2018-09-05T18:13:06.281Z,64.04
2018-09-05T18:15:35.525Z,62.96
2018-09-05T18:18:04.821Z,64.04
2018-09-05T18:20:34.055Z,64.08
2018-09-05T18:23:03.529Z,63.96
2018-09-05T18:25:32.720Z,63.33
2018-09-05T18:28:01.957Z,62.29
2018-09-05T18:30:31.065Z,63.16
2018-09-05T18:33:00.309Z,63.10
2018-09-05T18:35:29.514Z,63.37
2018-09-05T18:37:58.647Z,63.65
2018-09-05T18:40:27.755Z,64.12
2018-09-05T18:42:57.020Z,65.84
2018-09-05T18:45:27.055Z,66.52
2018-09-05T18:47:56.325Z,67.20
2018-09-05T18:50:25.500Z,65.84
2018-09-05T18:52:59.721Z,64.33
2018-09-05T18:55:32.163Z,64.55
2018-09-05T18:58:01.420Z,64.13
2018-09-05T19:00:30.770Z,65.22
2018-09-05T19:03:00.203Z,65.74
2018-09-05T19:05:29.447Z,67.17
2018-09-05T19:07:58.491Z,68.10
2018-09-05T19:10:27.591Z,67.90
2018-09-05T19:12:57.721Z,66.65
2018-09-05T19:15:27.294Z,67.39
2018-09-05T19:17:57.772Z,66.41
2018-09-05T19:20:26.896Z,66.39
2018-09-05T19:22:56.304Z,65.14
2018-09-05T19:25:25.704Z,66.44
2018-09-05T19:27:54.927Z,66.32
2018-09-05T19:30:26.328Z,66.90
2018-09-05T19:32:55.448Z,66.19
2018-09-05T19:35:24.638Z,65.46
2018-09-05T19:37:53.638Z,64.99
2018-09-05T19:40:24.397Z,65.49
2018-09-05T19:42:53.335Z,64.32
2018-09-05T19:45:23.178Z,65.03
2018-09-05T19:47:52.182Z,65.29
2018-09-05T19:50:23.403Z,63.88
2018-09-05T19:52:52.725Z,64.08
2018-09-05T19:55:22.185Z,65.96
2018-09-05T19:57:51.174Z,66.11
2018-09-05T20:00:22.643Z,66.59
2018-09-05T20:02:55.345Z,67.86
2018-09-05T20:05:24.557Z,69.96
2018-09-05T20:07:53.523Z,70.99
2018-09-05T20:10:23.696Z,69.52
2018-09-05T20:12:53.685Z,70.14
2018-09-05T20:15:23.199Z,71.00
2018-09-05T20:17:52.264Z,73.10
2018-09-05T20:20:21.793Z,74.05
2018-09-05T20:22:50.911Z,74.84
2018-09-05T20:25:20.389Z,75.57
2018-09-05T20:27:49.395Z,76.68
2018-09-05T20:30:18.443Z,79.61
2018-09-05T20:32:47.534Z,81.98
2018-09-05T20:35:17.904Z,82.19
2018-09-05T20:37:47.274Z,82.48
2018-09-05T20:40:16.522Z,83.88
2018-09-05T20:42:45.708Z,83.71
2018-09-05T20:45:16.104Z,82.16
2018-09-05T20:47:45.439Z,83.39
2018-09-05T20:50:16.002Z,84.58
2018-09-05T20:52:45.344Z,85.91
2018-09-05T20:55:14.483Z,86.93
2018-09-05T20:57:43.635Z,87.11
2018-09-05T21:00:12.788Z,86.34
2018-09-05T21:02:41.911Z,87.10
2018-09-05T21:05:11.020Z,86.30
2018-09-05T21:07:40.096Z,87.33
2018-09-05T21:10:09.288Z,86.56
2018-09-05T21:12:38.540Z,86.67
2018-09-05T21:15:14.142Z,86.16
2018-09-05T21:17:43.282Z,81.37
2018-09-05T21:20:12.339Z,79.53
2018-09-05T21:22:42.116Z,79.30
2018-09-05T21:25:11.224Z,79.38
2018-09-05T21:27:40.221Z,79.71
2018-09-05T21:30:09.310Z,79.58
2018-09-05T21:32:38.306Z,78.87
2018-09-05T21:35:07.460Z,78.18
2018-09-05T21:37:36.464Z,78.68
2018-09-05T21:40:05.721Z,79.35
2018-09-05T21:42:34.679Z,79.62
2018-09-05T21:45:03.708Z,81.89
2018-09-05T21:47:32.688Z,82.73
2018-09-05T21:50:01.603Z,81.58
2018-09-05T21:52:30.643Z,82.43
2018-09-05T21:54:59.662Z,83.06
2018-09-05T21:57:28.627Z,81.98
2018-09-05T21:59:57.677Z,80.73
2018-09-05T22:02:26.792Z,80.89
2018-09-05T22:04:55.887Z,82.67
2018-09-05T22:07:24.856Z,83.91
2018-09-05T22:09:53.838Z,85.01
2018-09-05T22:12:22.942Z,87.76
2018-09-05T22:14:51.882Z,88.92
2018-09-05T22:17:21.479Z,88.47
2018-09-05T22:19:50.456Z,91.01
2018-09-05T22:22:19.798Z,91.56
2018-09-05T22:24:48.770Z,93.34
2018-09-05T22:27:17.688Z,92.52
2018-09-05T22:29:46.641Z,95.00
2018-09-05T22:32:15.667Z,94.55
2018-09-05T22:34:44.602Z,94.61
2018-09-05T22:37:13.528Z,95.87
2018-09-05T22:39:42.604Z,96.00
2018-09-05T22:42:13.358Z,96.66
2018-09-05T22:45:55.262Z,96.01
2018-09-05T22:48:52.823Z,95.70
2018-09-05T22:53:45.753Z,95.23
2018-09-05T22:56:30.635Z,94.69
2018-09-05T22:59:36.402Z,94.59
2018-09-05T23:02:50.589Z,94.92
2018-09-05T23:07:48.702Z,92.76
2018-09-05T23:10:28.557Z,95.04
2018-09-05T23:15:10.719Z,93.87
2018-09-05T23:18:47.354Z,93.72
2018-09-05T23:21:20.555Z,94.67
2018-09-05T23:23:56.679Z,94.20
2018-09-05T23:26:26.003Z,94.73
2018-09-05T23:28:54.925Z,95.02
2018-09-05T23:31:24.332Z,95.24
2018-09-05T23:33:53.378Z,96.01
2018-09-05T23:36:23.004Z,96.71
2018-09-05T23:38:52.532Z,97.37
2018-09-05T23:41:22.000Z,97.13
2018-09-05T23:43:51.052Z,97.93
2018-09-05T23:46:20.734Z,99.72
2018-09-05T23:48:49.714Z,99.24
2018-09-05T23:51:18.697Z,97.95
2018-09-05T23:53:47.657Z,95.81
2018-09-05T23:56:16.839Z,92.28
2018-09-05T23:58:45.768Z,91.97
